Time;durP1;ratioP1;P1;durP2;ratioP2;P2;SDS_P1;SDS_P2;PMS_P1;PMS_P2;Temp;Humidity;BMP_temperature;BMP_pressure;BME280_temperature;BME280_humidity;BME280_pressure;Samples;Min_cycle;Max_cycle;Signal;HPM_P1;HPM_P2
2022/05/17 00:00:42;;;;;;;18.88;9.95;;;16.20;99.90;;;;;;5052990;28;20507;-72
2022/05/17 00:03:07;;;;;;;18.23;9.07;;;16.20;99.90;;;;;;5053310;28;20071;-72
2022/05/17 00:05:34;;;;;;;15.15;8.65;;;16.20;99.90;;;;;;5053288;28;20040;-72
2022/05/17 00:07:59;;;;;;;19.17;8.38;;;16.10;99.90;;;;;;5053292;28;20041;-72
2022/05/17 00:10:26;;;;;;;17.80;8.48;;;16.10;99.90;;;;;;5052929;28;20594;-72
2022/05/17 00:12:52;;;;;;;20.65;8.57;;;16.10;99.90;;;;;;5052146;28;20097;-72
2022/05/17 00:15:18;;;;;;;19.02;8.60;;;16.10;99.90;;;;;;5051952;28;20402;-72
2022/05/17 00:17:46;;;;;;;20.35;8.73;;;16.10;99.90;;;;;;5053227;28;20045;-72
2022/05/17 00:20:13;;;;;;;19.10;9.10;;;16.00;99.90;;;;;;5051775;28;20552;-72
2022/05/17 00:22:39;;;;;;;19.27;7.90;;;16.00;99.90;;;;;;5053011;28;20044;-72
2022/05/17 00:25:06;;;;;;;17.42;8.30;;;16.00;99.90;;;;;;5052978;28;20124;-72
2022/05/17 00:27:32;;;;;;;25.85;9.60;;;16.00;99.90;;;;;;5052762;28;20049;-72
2022/05/17 00:29:57;;;;;;;19.60;7.70;;;16.00;99.90;;;;;;5052404;28;20041;-72
2022/05/17 00:32:23;;;;;;;20.45;8.95;;;15.90;99.90;;;;;;5051149;28;20072;-72
2022/05/17 00:34:48;;;;;;;23.33;10.82;;;15.90;99.90;;;;;;5051314;28;20045;-72
2022/05/17 00:37:15;;;;;;;21.00;9.63;;;15.90;99.90;;;;;;5052660;28;20044;-72
2022/05/17 00:39:41;;;;;;;19.35;7.70;;;15.80;99.90;;;;;;5051555;28;20083;-72
2022/05/17 00:42:06;;;;;;;24.02;9.40;;;15.80;99.90;;;;;;5052157;28;20461;-72
2022/05/17 00:44:44;;;;;;;23.42;9.25;;;15.80;99.90;;;;;;5052401;28;20615;-72
2022/05/17 00:47:34;;;;;;;21.70;8.35;;;15.80;99.90;;;;;;5034807;28;20052;-72
2022/05/17 00:50:11;;;;;;;20.52;10.15;;;15.70;99.90;;;;;;5052160;28;20041;-72
2022/05/17 00:52:42;;;;;;;20.38;8.63;;;15.70;99.90;;;;;;5052274;28;20041;-72
2022/05/17 00:55:17;;;;;;;28.08;9.40;;;15.60;99.90;;;;;;5052456;28;20053;-72
2022/05/17 00:58:00;;;;;;;21.65;9.32;;;15.60;99.90;;;;;;5051220;28;20116;-72
2022/05/17 01:00:29;;;;;;;21.00;9.30;;;15.60;99.90;;;;;;5051978;28;20040;-72
2022/05/17 01:03:00;;;;;;;17.45;9.32;;;15.60;99.90;;;;;;5050744;28;20041;-72
2022/05/17 01:05:26;;;;;;;23.13;9.90;;;15.50;99.90;;;;;;5051173;28;20445;-72
2022/05/17 01:07:54;;;;;;;25.13;9.52;;;15.50;99.90;;;;;;5050835;28;20036;-72
2022/05/17 01:10:22;;;;;;;20.77;8.77;;;15.50;99.90;;;;;;5050374;28;20048;-71
2022/05/17 01:14:57;;;;;;;19.80;9.23;;;15.50;99.90;;;;;;5050949;28;20446;-71
2022/05/17 01:15:34;;;;;;;19.70;9.73;;;15.50;99.90;;;;;;5051679;28;20124;-71
2022/05/17 01:18:01;;;;;;;23.00;9.00;;;15.40;99.90;;;;;;5050547;28;20049;-71
2022/05/17 01:20:27;;;;;;;22.92;8.55;;;15.40;99.90;;;;;;5033733;28;20051;-71
2022/05/17 01:22:52;;;;;;;19.80;7.78;;;15.40;99.90;;;;;;5050516;28;20033;-72
2022/05/17 01:25:18;;;;;;;22.67;9.35;;;15.40;99.90;;;;;;5050508;28;20082;-71
2022/05/17 01:27:51;;;;;;;23.38;9.45;;;15.40;99.90;;;;;;5050456;28;20076;-71
2022/05/17 01:30:23;;;;;;;19.00;8.32;;;15.40;99.90;;;;;;5033610;28;20041;-72
2022/05/17 01:32:49;;;;;;;15.75;8.55;;;15.30;99.90;;;;;;5050317;28;20037;-72
2022/05/17 01:35:15;;;;;;;19.13;8.70;;;15.30;99.90;;;;;;5051948;28;20049;-72
2022/05/17 01:37:40;;;;;;;18.58;8.55;;;15.30;99.90;;;;;;5050554;28;20083;-72
2022/05/17 01:40:07;;;;;;;27.65;8.18;;;15.30;99.90;;;;;;5051290;28;20120;-72
2022/05/17 01:42:32;;;;;;;20.65;8.27;;;15.30;99.90;;;;;;5051343;28;20072;-72
2022/05/17 01:44:58;;;;;;;20.30;9.38;;;15.30;99.90;;;;;;5051434;28;20119;-72
2022/05/17 01:47:24;;;;;;;15.90;7.60;;;15.30;99.90;;;;;;5051710;28;20159;-72
2022/05/17 01:49:49;;;;;;;21.23;8.13;;;15.30;99.90;;;;;;5050181;28;20124;-73
2022/05/17 01:52:15;;;;;;;17.48;7.95;;;15.30;99.90;;;;;;5051121;28;20045;-72
2022/05/17 01:54:40;;;;;;;15.38;7.70;;;15.30;99.90;;;;;;5050136;28;20041;-72
2022/05/17 01:57:06;;;;;;;22.92;8.23;;;15.30;99.90;;;;;;5050132;28;20145;-72
2022/05/17 01:59:33;;;;;;;17.48;8.18;;;15.30;99.90;;;;;;5050387;28;20628;-72
2022/05/17 02:01:59;;;;;;;18.83;9.48;;;15.30;99.90;;;;;;5051283;28;20037;-72
2022/05/17 02:04:24;;;;;;;17.48;7.65;;;15.30;99.90;;;;;;5051463;28;20112;-72
2022/05/17 02:06:50;;;;;;;21.33;8.02;;;15.20;99.90;;;;;;5051442;28;20443;-72
2022/05/17 02:09:15;;;;;;;20.40;8.20;;;15.20;99.90;;;;;;5051326;28;20048;-72
2022/05/17 02:11:41;;;;;;;24.73;8.38;;;15.20;99.90;;;;;;5049992;28;20120;-72
2022/05/17 02:14:07;;;;;;;21.77;9.10;;;15.20;99.90;;;;;;5051434;28;20041;-72
2022/05/17 02:16:37;;;;;;;17.80;7.47;;;15.20;99.90;;;;;;5049950;28;20045;-72
2022/05/17 02:19:06;;;;;;;20.30;8.07;;;15.10;99.90;;;;;;5051296;28;20036;-72
2022/05/17 02:21:33;;;;;;;19.60;8.15;;;15.10;99.90;;;;;;5051471;28;20524;-72
2022/05/17 02:23:58;;;;;;;20.27;7.90;;;15.10;99.90;;;;;;5055073;28;20029;-72
2022/05/17 02:26:24;;;;;;;16.13;7.95;;;15.10;99.90;;;;;;5055091;28;20063;-72
2022/05/17 02:28:49;;;;;;;19.88;8.00;;;15.10;99.90;;;;;;5054002;28;20044;-72
2022/05/17 02:31:16;;;;;;;21.98;8.38;;;15.10;99.90;;;;;;5054868;28;20051;-72
2022/05/17 02:33:42;;;;;;;20.88;8.30;;;15.10;99.90;;;;;;5053374;28;20088;-72
2022/05/17 02:36:07;;;;;;;23.52;8.77;;;15.00;99.90;;;;;;5053583;28;20110;-72
2022/05/17 02:38:36;;;;;;;17.85;7.70;;;15.10;99.90;;;;;;5054853;28;20500;-72
2022/05/17 02:41:01;;;;;;;20.45;7.43;;;15.00;99.90;;;;;;5053493;28;20113;-72
2022/05/17 02:43:27;;;;;;;18.83;8.10;;;15.00;99.90;;;;;;5053336;28;20498;-72
2022/05/17 02:45:53;;;;;;;22.48;7.50;;;15.00;99.90;;;;;;5054849;28;20045;-72
2022/05/17 02:48:19;;;;;;;17.90;8.45;;;15.00;99.90;;;;;;5054653;28;20049;-72
2022/05/17 02:50:44;;;;;;;22.50;7.55;;;15.00;99.90;;;;;;5053367;28;20052;-72
2022/05/17 02:53:10;;;;;;;20.73;8.40;;;15.00;99.90;;;;;;5053179;28;20048;-72
2022/05/17 02:55:35;;;;;;;17.55;8.45;;;14.90;99.90;;;;;;5054722;28;20044;-72
2022/05/17 02:58:01;;;;;;;25.80;8.93;;;14.90;99.90;;;;;;5054604;28;20039;-72
2022/05/17 03:00:26;;;;;;;16.77;7.45;;;14.90;99.90;;;;;;5052908;28;20133;-72
2022/05/17 03:02:52;;;;;;;19.42;8.32;;;14.90;99.90;;;;;;5054284;28;20036;-72
2022/05/17 03:05:18;;;;;;;29.70;8.65;;;14.90;99.90;;;;;;5054301;28;20167;-72
2022/05/17 03:07:44;;;;;;;16.70;7.47;;;14.90;99.90;;;;;;5054261;28;20037;-72
2022/05/17 03:10:11;;;;;;;21.20;8.40;;;14.90;99.90;;;;;;5052736;28;20165;-72
2022/05/17 03:12:37;;;;;;;23.33;8.23;;;14.90;99.90;;;;;;5054085;28;20110;-72
2022/05/17 03:15:04;;;;;;;15.50;7.82;;;14.80;99.90;;;;;;5053033;28;20045;-72
2022/05/17 03:17:30;;;;;;;17.13;7.25;;;14.80;99.90;;;;;;5054242;28;20120;-72
2022/05/17 03:19:55;;;;;;;17.73;8.18;;;14.80;99.90;;;;;;5053826;28;20079;-71
2022/05/17 03:22:21;;;;;;;17.35;8.38;;;14.80;99.90;;;;;;5053896;28;20033;-72
2022/05/17 03:24:46;;;;;;;17.25;7.90;;;14.80;99.90;;;;;;5054241;28;20562;-72
2022/05/17 03:27:12;;;;;;;16.52;7.53;;;14.80;99.90;;;;;;5053906;28;20037;-72
2022/05/17 03:29:37;;;;;;;27.75;8.70;;;14.80;99.90;;;;;;5052828;28;20033;-72
2022/05/17 03:32:03;;;;;;;15.38;7.90;;;14.70;99.90;;;;;;5053534;28;20094;-72
2022/05/17 03:34:29;;;;;;;19.33;8.10;;;14.70;99.90;;;;;;5091148;22;20125;-70
2022/05/17 03:36:55;;;;;;;23.35;8.27;;;14.70;99.90;;;;;;5073805;28;20051;-71
2022/05/17 03:39:20;;;;;;;14.93;8.45;;;14.70;99.90;;;;;;5072760;28;20047;-71
2022/05/17 03:41:46;;;;;;;19.33;8.63;;;14.70;99.90;;;;;;5073594;28;20072;-71
2022/05/17 03:44:11;;;;;;;24.15;9.48;;;14.70;99.90;;;;;;5072396;28;20123;-71
2022/05/17 03:46:38;;;;;;;15.60;7.40;;;14.70;99.90;;;;;;5073320;28;20413;-71
2022/05/17 03:49:03;;;;;;;16.52;7.72;;;14.70;99.90;;;;;;5073931;28;20102;-71
2022/05/17 03:51:29;;;;;;;18.38;9.73;;;14.70;99.90;;;;;;5073398;28;20040;-71
2022/05/17 03:53:55;;;;;;;18.63;9.00;;;14.60;99.90;;;;;;5073617;28;20115;-71
2022/05/17 03:56:20;;;;;;;21.20;9.27;;;14.60;99.90;;;;;;5073612;28;20028;-71
2022/05/17 03:58:46;;;;;;;17.02;7.88;;;14.60;99.90;;;;;;5073564;28;20474;-71
2022/05/17 04:01:13;;;;;;;21.40;8.80;;;14.60;99.90;;;;;;5072061;28;20036;-71
2022/05/17 04:03:39;;;;;;;18.70;7.60;;;14.60;99.90;;;;;;5055663;28;20029;-72
2022/05/17 04:06:05;;;;;;;19.50;8.13;;;14.60;99.90;;;;;;5071960;28;20055;-72
2022/05/17 04:08:32;;;;;;;20.55;8.93;;;14.60;99.90;;;;;;5071914;28;20040;-71
2022/05/17 04:10:57;;;;;;;17.23;7.65;;;14.60;99.90;;;;;;5071672;28;20082;-72
2022/05/17 04:13:26;;;;;;;19.95;8.93;;;14.60;99.90;;;;;;5071916;28;20417;-72
2022/05/17 04:15:52;;;;;;;20.85;8.30;;;14.60;99.90;;;;;;5071909;28;20032;-72
2022/05/17 04:18:17;;;;;;;22.17;7.75;;;14.60;99.90;;;;;;5071862;28;20036;-72
2022/05/17 04:20:43;;;;;;;21.60;9.10;;;14.70;99.90;;;;;;5054856;28;20043;-72
2022/05/17 04:23:09;;;;;;;23.13;10.15;;;14.70;99.90;;;;;;5073414;28;20059;-71
2022/05/17 04:25:34;;;;;;;20.83;9.10;;;14.70;99.90;;;;;;5073183;28;20123;-71
2022/05/17 04:28:00;;;;;;;22.15;8.95;;;14.70;99.90;;;;;;5073021;28;20038;-71
2022/05/17 04:30:26;;;;;;;17.60;8.77;;;14.70;99.90;;;;;;5072537;28;20117;-71
2022/05/17 04:32:52;;;;;;;21.27;8.07;;;14.80;99.90;;;;;;5071376;28;20486;-71
2022/05/17 04:35:18;;;;;;;17.75;8.85;;;14.80;99.90;;;;;;5071362;28;20059;-72
2022/05/17 04:37:44;;;;;;;20.38;8.95;;;14.80;99.90;;;;;;5071566;28;20036;-71
2022/05/17 04:40:13;;;;;;;23.33;9.25;;;14.90;99.90;;;;;;5072407;28;20036;-71
2022/05/17 04:42:40;;;;;;;17.95;8.93;;;14.90;99.90;;;;;;5072733;28;20040;-71
2022/05/17 04:45:08;;;;;;;16.30;8.55;;;15.00;99.90;;;;;;5071096;28;20048;-71
2022/05/17 04:47:34;;;;;;;24.27;9.02;;;15.20;99.90;;;;;;5072591;28;20059;-71
2022/05/17 04:49:59;;;;;;;17.77;8.57;;;15.30;99.90;;;;;;5071040;28;20486;-71
2022/05/17 04:52:26;;;;;;;22.73;8.68;;;15.50;99.90;;;;;;5072557;28;20045;-71
2022/05/17 04:54:52;;;;;;;17.77;9.32;;;15.60;99.90;;;;;;5054312;28;20032;-71
2022/05/17 04:57:18;;;;;;;17.70;7.93;;;15.80;99.90;;;;;;5071097;28;20090;-71
2022/05/17 04:59:44;;;;;;;15.07;7.28;;;15.90;99.90;;;;;;5071012;28;20044;-71
2022/05/17 05:02:10;;;;;;;16.00;7.55;;;16.20;99.90;;;;;;5070888;28;20033;-71
2022/05/17 05:04:38;;;;;;;14.40;7.40;;;16.30;99.90;;;;;;5072540;28;20483;-71
2022/05/17 05:07:07;;;;;;;13.55;8.00;;;16.50;99.90;;;;;;5071237;28;20115;-71
2022/05/17 05:09:33;;;;;;;18.25;7.60;;;16.70;99.90;;;;;;5072258;28;20079;-71
2022/05/17 05:12:00;;;;;;;12.82;6.63;;;16.90;99.90;;;;;;5070892;28;20052;-71
2022/05/17 05:14:26;;;;;;;21.15;7.85;;;17.00;99.90;;;;;;5071926;28;20477;-71
2022/05/17 05:16:52;;;;;;;15.80;6.72;;;17.20;99.90;;;;;;5054204;28;20124;-71
2022/05/17 05:19:18;;;;;;;16.25;6.45;;;17.30;99.90;;;;;;5072203;28;20044;-71
2022/05/17 05:21:44;;;;;;;21.50;8.65;;;17.50;99.90;;;;;;5070495;28;20044;-71
2022/05/17 05:24:11;;;;;;;18.80;7.03;;;17.50;99.90;;;;;;5070588;28;20043;-71
2022/05/17 05:26:37;;;;;;;16.70;7.32;;;17.50;99.90;;;;;;5070942;28;20046;-71
2022/05/17 05:29:03;;;;;;;13.52;6.32;;;17.60;99.90;;;;;;5070617;28;20588;-71
2022/05/17 05:31:29;;;;;;;18.25;6.20;;;17.60;99.90;;;;;;5071520;28;20079;-72
2022/05/17 05:33:55;;;;;;;14.13;6.68;;;17.70;99.90;;;;;;5070460;28;20076;-71
2022/05/17 05:36:20;;;;;;;17.58;7.30;;;17.70;99.90;;;;;;5070450;28;20037;-69
2022/05/17 05:38:46;;;;;;;13.80;5.72;;;17.60;99.90;;;;;;5070409;28;20037;-69
2022/05/17 05:41:12;;;;;;;15.85;6.43;;;17.60;99.90;;;;;;5071572;28;20398;-69
2022/05/17 05:43:38;;;;;;;14.50;6.85;;;17.60;99.90;;;;;;5071658;28;20516;-70
2022/05/17 05:46:04;;;;;;;15.75;7.03;;;17.50;99.90;;;;;;5071691;28;20036;-70
2022/05/17 05:48:31;;;;;;;16.67;6.85;;;17.40;99.90;;;;;;5070728;28;20044;-70
2022/05/17 05:50:56;;;;;;;20.05;6.50;;;17.40;99.90;;;;;;5071547;28;20075;-70
2022/05/17 05:53:22;;;;;;;16.30;6.25;;;17.50;99.90;;;;;;5071482;28;20133;-70
2022/05/17 05:55:57;;;;;;;17.88;6.57;;;17.80;99.90;;;;;;5070437;28;20036;-70
2022/05/17 05:58:26;;;;;;;16.65;5.70;;;18.10;99.90;;;;;;5057513;28;20048;-70
2022/05/17 06:00:51;;;;;;;13.32;5.70;;;18.40;99.90;;;;;;5074422;28;20494;-70
2022/05/17 06:03:17;;;;;;;14.20;5.32;;;18.60;99.90;;;;;;5075892;28;20043;-70
2022/05/17 06:05:42;;;;;;;17.38;6.43;;;18.80;99.90;;;;;;5074398;28;20036;-69
2022/05/17 06:08:13;;;;;;;18.80;6.40;;;18.90;99.90;;;;;;5074350;28;20047;-70
2022/05/17 06:10:41;;;;;;;13.57;5.55;;;19.00;99.90;;;;;;5074223;28;20409;-70
2022/05/17 06:13:07;;;;;;;15.35;5.47;;;19.00;99.90;;;;;;5075438;28;20452;-69
2022/05/17 06:15:33;;;;;;;15.52;5.32;;;19.10;99.90;;;;;;5074388;28;20410;-70
2022/05/17 06:18:03;;;;;;;15.55;5.50;;;19.00;99.90;;;;;;5075787;28;20040;-70
2022/05/17 06:20:28;;;;;;;15.85;6.22;;;18.90;99.90;;;;;;5075138;28;20094;-70
2022/05/17 06:22:54;;;;;;;16.98;6.13;;;18.90;99.90;;;;;;5074077;28;20029;-70
2022/05/17 06:25:21;;;;;;;16.83;5.97;;;18.80;99.90;;;;;;5074237;28;20047;-71
2022/05/17 06:27:47;;;;;;;13.20;5.47;;;18.90;99.90;;;;;;5074030;28;20041;-71
2022/05/17 06:30:13;;;;;;;15.57;6.47;;;19.10;99.90;;;;;;5074012;28;20040;-70
2022/05/17 06:32:39;;;;;;;13.48;5.65;;;19.10;99.90;;;;;;5073750;28;20055;-70
2022/05/17 06:35:05;;;;;;;15.57;5.57;;;19.30;99.90;;;;;;5075286;28;20033;-70
2022/05/17 06:37:31;;;;;;;13.50;5.43;;;19.40;99.90;;;;;;5075179;28;20044;-70
2022/05/17 06:39:57;;;;;;;15.48;5.57;;;19.70;99.90;;;;;;5073852;28;20040;-71
2022/05/17 06:42:23;;;;;;;14.48;6.55;;;19.80;99.90;;;;;;5040734;28;20075;-71
2022/05/17 06:44:49;;;;;;;12.32;5.75;;;20.00;99.90;;;;;;5075030;28;20063;-70
2022/05/17 06:47:16;;;;;;;17.10;6.28;;;20.20;99.90;;;;;;5073632;28;20494;-70
2022/05/17 06:49:41;;;;;;;12.93;5.32;;;20.30;99.90;;;;;;5073545;28;20049;-70
2022/05/17 06:52:08;;;;;;;9.90;5.95;;;20.40;99.90;;;;;;5073441;28;20059;-70
2022/05/17 06:54:35;;;;;;;11.02;4.63;;;20.40;99.90;;;;;;5073557;28;20044;-70
2022/05/17 06:57:09;;;;;;;17.23;6.57;;;20.40;99.90;;;;;;5074469;28;20036;-70
2022/05/17 06:59:36;;;;;;;14.10;5.43;;;20.40;99.90;;;;;;5073265;28;20037;-71
2022/05/17 07:02:04;;;;;;;13.15;5.30;;;20.40;99.90;;;;;;5073108;28;20037;-70
2022/05/17 07:04:31;;;;;;;14.23;5.32;;;20.50;99.90;;;;;;5073122;28;20124;-70
2022/05/17 07:06:57;;;;;;;12.43;4.80;;;20.50;99.90;;;;;;5056614;28;20393;-70
2022/05/17 07:09:24;;;;;;;13.65;5.93;;;20.50;99.90;;;;;;5056288;28;20123;-71
2022/05/17 07:14:37;;;;;;;11.15;4.68;;;20.70;99.90;;;;;;5074269;28;20040;-71
2022/05/17 07:17:09;;;;;;;9.10;4.43;;;20.80;99.90;;;;;;5072887;28;20044;-71
2022/05/17 07:19:35;;;;;;;14.35;5.82;;;20.90;99.90;;;;;;5073038;28;20498;-71
2022/05/17 07:22:01;;;;;;;13.95;5.20;;;21.00;99.90;;;;;;5073772;28;20093;-70
2022/05/17 07:24:27;;;;;;;12.95;4.35;;;21.10;99.70;;;;;;5074001;28;20045;-71
2022/05/17 07:26:54;;;;;;;11.55;4.88;;;21.20;99.10;;;;;;5073160;28;20452;-71
2022/05/17 07:29:20;;;;;;;10.73;4.55;;;21.30;98.40;;;;;;5072765;28;20041;-71
2022/05/17 07:31:46;;;;;;;11.02;4.75;;;21.30;98.00;;;;;;5073772;28;20052;-71
2022/05/17 07:34:12;;;;;;;14.50;5.63;;;21.50;97.90;;;;;;5073794;28;20185;-71
2022/05/17 07:36:38;;;;;;;15.07;4.35;;;21.80;97.20;;;;;;5073698;28;20051;-71
2022/05/17 07:39:04;;;;;;;11.55;4.63;;;21.70;95.90;;;;;;5072670;28;20036;-71
2022/05/17 07:41:31;;;;;;;14.77;4.32;;;21.80;95.40;;;;;;5073660;28;20117;-71
2022/05/17 07:43:57;;;;;;;10.85;4.47;;;21.90;95.60;;;;;;5072780;28;20040;-71
2022/05/17 07:46:22;;;;;;;16.85;4.53;;;22.00;95.50;;;;;;5055864;28;20132;-71
2022/05/17 07:48:48;;;;;;;13.65;5.10;;;22.20;94.80;;;;;;5072507;28;20123;-71
2022/05/17 07:51:14;;;;;;;12.77;4.25;;;22.30;95.10;;;;;;5072004;28;20041;-71
2022/05/17 07:53:39;;;;;;;11.60;4.10;;;22.30;94.40;;;;;;5072192;28;20041;-71
2022/05/17 07:56:05;;;;;;;12.95;4.65;;;22.40;94.50;;;;;;5072276;28;20047;-71
2022/05/17 07:58:31;;;;;;;12.80;4.57;;;22.40;94.40;;;;;;5055677;28;20048;-71
2022/05/17 08:00:56;;;;;;;9.80;4.55;;;22.50;95.10;;;;;;5073214;28;20041;-71
2022/05/17 08:03:24;;;;;;;13.27;4.93;;;22.70;93.70;;;;;;5072985;28;20050;-71
2022/05/17 08:05:52;;;;;;;11.77;4.22;;;22.70;92.50;;;;;;5072897;28;20096;-70
2022/05/17 08:08:18;;;;;;;11.20;3.55;;;22.60;92.10;;;;;;5071513;28;20082;-72
2022/05/17 08:10:43;;;;;;;9.85;3.60;;;22.90;93.20;;;;;;5071202;28;20051;-71
2022/05/17 08:13:09;;;;;;;10.30;3.95;;;23.20;92.70;;;;;;5072333;28;20068;-73
2022/05/17 08:15:35;;;;;;;12.65;3.85;;;23.30;91.60;;;;;;5071559;28;20033;-71
2022/05/17 08:18:04;;;;;;;13.90;4.25;;;23.50;91.30;;;;;;5071160;28;20375;-71
2022/05/17 08:20:31;;;;;;;11.25;4.18;;;23.50;90.40;;;;;;5053884;28;20121;-71
2022/05/17 08:22:57;;;;;;;13.52;4.00;;;23.50;89.80;;;;;;5071264;28;21495;-72
2022/05/17 08:28:08;;;;;;;10.57;3.42;;;23.30;89.50;;;;;;5071361;28;20510;-72
2022/05/17 08:30:34;;;;;;;5.78;3.20;;;23.30;89.80;;;;;;5070470;28;20089;-72
2022/05/17 08:33:19;;;;;;;12.15;3.65;;;23.50;90.30;;;;;;5071721;28;20040;-72
2022/05/17 08:36:01;;;;;;;14.48;4.40;;;23.50;89.60;;;;;;5066827;28;20041;-72
2022/05/17 08:38:43;;;;;;;17.17;3.88;;;23.40;85.50;;;;;;5072811;28;20044;-72
2022/05/17 08:41:14;;;;;;;10.63;3.33;;;23.50;87.30;;;;;;5072095;28;20039;-72
2022/05/17 08:43:59;;;;;;;9.55;4.15;;;23.80;88.50;;;;;;5071223;28;20501;-72
2022/05/17 08:47:05;;;;;;;11.05;3.75;;;23.70;83.00;;;;;;5071391;28;20455;-72
2022/05/17 08:49:37;;;;;;;12.85;3.85;;;24.10;81.50;;;;;;5053799;28;20040;-72
2022/05/17 08:52:07;;;;;;;10.48;3.33;;;23.90;81.40;;;;;;5071098;28;20036;-71
2022/05/17 08:55:01;;;;;;;11.02;3.15;;;24.10;82.40;;;;;;5070897;28;20052;-73
2022/05/17 08:57:40;;;;;;;10.93;3.50;;;24.10;80.30;;;;;;5070954;28;20087;-72
2022/05/17 09:00:18;;;;;;;8.77;3.20;;;24.40;80.70;;;;;;5054096;28;20047;-73
2022/05/17 09:02:49;;;;;;;12.02;3.63;;;24.10;82.20;;;;;;5070807;28;20037;-72
2022/05/17 09:05:18;;;;;;;11.80;3.55;;;24.30;79.70;;;;;;5054207;28;20040;-72
2022/05/17 09:07:48;;;;;;;13.10;4.18;;;24.20;79.00;;;;;;5072133;28;20528;-72
2022/05/17 09:10:27;;;;;;;14.25;4.63;;;24.00;79.00;;;;;;5070616;28;20406;-73
2022/05/17 09:13:06;;;;;;;9.02;3.40;;;24.30;79.70;;;;;;5070828;28;20045;-73
2022/05/17 09:15:31;;;;;;;12.40;4.05;;;24.30;81.40;;;;;;5070640;28;20044;-73
2022/05/17 09:18:03;;;;;;;12.65;3.92;;;24.00;81.20;;;;;;5070768;28;20492;-73
2022/05/17 09:20:33;;;;;;;8.57;3.00;;;24.00;79.20;;;;;;5070272;28;20036;-70
2022/05/17 09:22:59;;;;;;;8.85;3.28;;;24.00;78.90;;;;;;5068502;28;20277;-70
2022/05/17 09:25:50;;;;;;;9.77;3.55;;;23.60;79.60;;;;;;5065730;28;20048;-70
2022/05/17 09:28:21;;;;;;;9.07;2.97;;;24.20;78.90;;;;;;5066521;28;20555;-70
2022/05/17 09:30:47;;;;;;;10.13;4.07;;;24.40;79.50;;;;;;5071246;28;20033;-71
2022/05/17 09:33:19;;;;;;;10.52;3.30;;;24.30;75.60;;;;;;5070146;28;20032;-71
2022/05/17 09:36:00;;;;;;;9.70;3.50;;;24.30;76.60;;;;;;5076377;22;20490;-74
2022/05/17 09:38:30;;;;;;;6.57;2.90;;;24.20;78.70;;;;;;5049919;28;20120;-73
2022/05/17 09:40:57;;;;;;;11.02;2.85;;;24.20;78.00;;;;;;5051561;28;20040;-73
2022/05/17 09:43:49;;;;;;;8.60;2.83;;;24.30;78.30;;;;;;5050426;28;20406;-74
2022/05/17 09:46:16;;;;;;;12.07;3.88;;;24.30;72.20;;;;;;5030707;28;20188;-74
2022/05/17 09:54:51;;;;;;;9.77;2.60;;;24.00;73.50;;;;;;5010448;28;20046;-73
2022/05/17 09:57:24;;;;;;;8.55;2.60;;;23.70;71.60;;;;;;5010862;28;20385;-73
2022/05/17 09:59:54;;;;;;;;;;;23.70;70.90;;;;;;5012262;28;20503;-73
2022/05/17 10:02:29;;;;;;;9.88;2.30;;;23.30;72.80;;;;;;5010449;28;20375;-73
2022/05/17 10:04:56;;;;;;;7.20;2.83;;;23.50;72.40;;;;;;5010625;28;20185;-73
2022/05/17 10:07:29;;;;;;;7.80;2.50;;;23.60;74.60;;;;;;5010725;28;20121;-73
2022/05/17 10:09:55;;;;;;;9.15;2.88;;;23.60;73.90;;;;;;5011719;28;20038;-73
2022/05/17 10:12:33;;;;;;;9.65;3.17;;;23.60;72.10;;;;;;5010643;28;20052;-74
2022/05/17 10:15:08;;;;;;;9.60;2.65;;;23.70;74.00;;;;;;5010290;28;20050;-73
2022/05/17 10:17:49;;;;;;;6.18;1.85;;;23.70;73.20;;;;;;5010605;28;20092;-73
2022/05/17 10:20:31;;;;;;;9.00;2.60;;;23.60;70.80;;;;;;5011398;28;20121;-73
2022/05/17 10:23:02;;;;;;;11.40;2.15;;;23.70;70.40;;;;;;5011797;28;20042;-74
2022/05/17 10:25:49;;;;;;;8.50;2.90;;;23.80;69.50;;;;;;5010310;28;20045;-74
2022/05/17 10:28:45;;;;;;;7.40;2.47;;;24.00;68.70;;;;;;5010451;28;20110;-74
2022/05/17 10:31:22;;;;;;;9.02;2.60;;;24.00;67.50;;;;;;5010020;28;20646;-74
2022/05/17 10:34:14;;;;;;;9.52;3.13;;;23.80;68.70;;;;;;4993914;28;20078;-74
2022/05/17 10:36:49;;;;;;;6.60;2.60;;;24.00;69.80;;;;;;5009276;28;20455;-73
2022/05/17 10:39:24;;;;;;;7.07;2.30;;;23.70;67.30;;;;;;5009299;28;20037;-73
2022/05/17 10:41:51;;;;;;;7.88;1.83;;;23.60;68.20;;;;;;5025587;28;20447;-72
2022/05/17 10:44:19;;;;;;;10.02;3.08;;;23.50;65.90;;;;;;5011925;28;20052;-73
2022/05/17 10:46:52;;;;;;;8.25;1.98;;;23.40;66.00;;;;;;5012471;28;20073;-74
2022/05/17 10:49:25;;;;;;;10.05;2.83;;;23.60;67.70;;;;;;5012890;28;20531;-73
2022/05/17 10:51:57;;;;;;;7.47;2.17;;;23.20;64.90;;;;;;5026335;28;20041;-74
2022/05/17 10:54:35;;;;;;;5.53;2.08;;;23.10;65.10;;;;;;5029836;28;20395;-74
2022/05/17 10:57:22;;;;;;;7.95;2.33;;;23.30;64.80;;;;;;5028877;28;20048;-74
2022/05/17 10:59:53;;;;;;;9.68;2.40;;;23.20;65.90;;;;;;5031750;28;20163;-74
2022/05/17 11:02:37;;;;;;;7.43;2.10;;;23.10;65.70;;;;;;5027174;28;20025;-75
2022/05/17 11:05:20;;;;;;;6.38;2.38;;;23.30;67.60;;;;;;5028301;28;20108;-74
2022/05/17 11:08:09;;;;;;;7.68;2.40;;;23.40;67.60;;;;;;5031219;28;20124;-75
2022/05/17 11:10:44;;;;;;;8.52;2.50;;;23.70;66.40;;;;;;5030706;28;20491;-74
2022/05/17 11:13:31;;;;;;;8.25;2.47;;;23.50;62.60;;;;;;5029186;28;20033;-73
2022/05/17 11:16:18;;;;;;;7.53;2.10;;;23.80;64.10;;;;;;5029688;28;20038;-74
2022/05/17 11:18:52;;;;;;;7.28;2.35;;;23.90;64.60;;;;;;5015357;28;20045;-74
2022/05/17 11:21:48;;;;;;;7.10;1.75;;;23.80;64.40;;;;;;5031546;28;20076;-74
2022/05/17 11:24:52;;;;;;;11.95;2.65;;;23.50;61.80;;;;;;5031972;28;20494;-74
2022/05/17 11:27:55;;;;;;;7.60;1.92;;;23.80;62.30;;;;;;5033064;28;20136;-73
2022/05/17 11:30:33;;;;;;;6.15;1.60;;;23.90;64.00;;;;;;5031554;28;20049;-73
2022/05/17 11:33:23;;;;;;;7.93;1.73;;;23.80;59.30;;;;;;5031526;28;20037;-74
2022/05/17 11:35:56;;;;;;;7.18;2.08;;;23.40;57.70;;;;;;4971388;28;1018969;-74
2022/05/17 11:38:34;;;;;;;4.40;1.95;;;23.50;57.90;;;;;;5023669;28;20038;-74
2022/05/17 11:41:21;;;;;;;9.30;2.30;;;23.60;59.50;;;;;;5027811;28;20041;-73
2022/05/17 11:44:07;;;;;;;7.80;2.15;;;23.50;58.80;;;;;;5046915;28;20104;-74
2022/05/17 11:46:34;;;;;;;6.05;1.60;;;23.60;60.10;;;;;;5028724;28;20495;-73
2022/05/17 11:49:00;;;;;;;6.82;2.10;;;23.60;60.20;;;;;;5029922;28;20116;-73
2022/05/17 11:51:31;;;;;;;6.53;2.20;;;23.60;59.40;;;;;;5032071;28;20132;-75
2022/05/17 11:53:57;;;;;;;7.15;2.20;;;23.70;59.90;;;;;;5032590;28;20049;-75
2022/05/17 11:56:26;;;;;;;7.53;2.10;;;23.80;59.40;;;;;;5032365;28;20044;-73
2022/05/17 11:58:57;;;;;;;7.15;1.83;;;23.80;57.60;;;;;;5032599;28;20061;-74
2022/05/17 12:01:29;;;;;;;8.88;2.72;;;23.80;59.60;;;;;;5030353;28;20064;-73
2022/05/17 12:04:19;;;;;;;9.10;2.03;;;23.90;58.90;;;;;;5030371;28;20083;-74
2022/05/17 12:06:48;;;;;;;8.63;1.88;;;24.00;57.70;;;;;;5013292;28;20060;-73
2022/05/17 12:09:22;;;;;;;7.88;1.92;;;23.90;57.70;;;;;;5013234;28;20100;-74
2022/05/17 12:11:54;;;;;;;7.53;2.22;;;24.10;58.80;;;;;;5028832;28;20050;-74
2022/05/17 12:14:43;;;;;;;8.77;2.67;;;24.00;59.00;;;;;;5012106;28;20132;-74
2022/05/17 12:17:19;;;;;;;8.35;1.98;;;24.00;59.80;;;;;;5012377;28;20050;-73
2022/05/17 12:20:15;;;;;;;6.72;2.40;;;24.00;58.10;;;;;;5012501;28;20045;-74
2022/05/17 12:23:00;;;;;;;5.97;1.75;;;24.00;57.00;;;;;;5012452;28;20069;-73
2022/05/17 12:25:31;;;;;;;6.93;1.58;;;24.20;57.30;;;;;;5012538;28;20034;-73
2022/05/17 12:27:59;;;;;;;6.22;2.20;;;24.00;57.30;;;;;;5012150;28;20046;-73
2022/05/17 12:33:28;;;;;;;4.80;1.70;;;23.40;55.80;;;;;;5029264;28;20053;-73
2022/05/17 12:36:09;;;;;;;7.93;2.25;;;23.60;55.00;;;;;;5031394;28;20475;-73
2022/05/17 12:44:13;;;;;;;8.65;1.75;;;24.20;58.70;;;;;;5029263;28;20041;-71
2022/05/17 12:46:40;;;;;;;10.35;2.28;;;24.00;54.90;;;;;;5031237;28;20050;-73
2022/05/17 12:49:18;;;;;;;6.07;1.63;;;24.10;53.90;;;;;;5032672;28;20045;-72
2022/05/17 12:51:49;;;;;;;6.43;2.05;;;24.10;51.90;;;;;;5030724;28;20065;-72
2022/05/17 12:54:20;;;;;;;9.27;2.35;;;24.10;53.60;;;;;;5031157;28;20048;-73
2022/05/17 12:56:47;;;;;;;4.43;1.40;;;24.00;52.70;;;;;;5014579;28;20471;-73
2022/05/17 12:59:14;;;;;;;6.60;1.60;;;24.10;52.60;;;;;;5032374;28;20041;-72
2022/05/17 13:01:43;;;;;;;3.92;1.38;;;24.10;52.80;;;;;;5030935;28;20068;-73
2022/05/17 13:04:14;;;;;;;6.93;1.50;;;24.00;52.70;;;;;;5032086;28;20037;-73
2022/05/17 13:06:50;;;;;;;7.50;1.75;;;24.20;55.00;;;;;;5032233;28;20048;-73
2022/05/17 13:09:22;;;;;;;8.10;1.65;;;23.90;52.80;;;;;;5031135;28;20049;-73
2022/05/17 13:11:50;;;;;;;6.90;1.45;;;24.10;54.00;;;;;;5030734;28;20045;-73
2022/05/17 13:14:27;;;;;;;6.22;1.70;;;24.20;55.40;;;;;;5030766;28;20160;-72